createdAt,value
2023-01-30T00:01:47.106Z,37.45
2023-01-30T00:04:17.419Z,39.22
2023-01-30T00:06:45.354Z,36.75
2023-01-30T00:09:15.594Z,36.53
2023-01-30T00:11:44.135Z,35.97
2023-01-30T00:14:11.745Z,38.50
2023-01-30T00:16:39.400Z,38.47
2023-01-30T00:19:07.587Z,38.50
2023-01-30T00:21:36.644Z,38.40
2023-01-30T00:24:05.408Z,38.67
2023-01-30T00:26:33.047Z,35.28
2023-01-30T00:29:00.686Z,36.92
2023-01-30T00:31:31.621Z,37.97
2023-01-30T00:34:00.753Z,37.55
2023-01-30T00:36:28.403Z,36.40
2023-01-30T00:38:59.237Z,38.30
2023-01-30T00:41:48.563Z,35.75
2023-01-30T00:44:36.630Z,40.05
2023-01-30T00:47:08.725Z,39.80
2023-01-30T00:49:37.616Z,38.00
2023-01-30T00:52:07.094Z,38.67
2023-01-30T00:54:36.347Z,43.67
2023-01-30T00:57:04.211Z,41.60
2023-01-30T00:59:32.272Z,41.47
2023-01-30T01:02:00.721Z,37.55
2023-01-30T01:04:28.578Z,39.17
2023-01-30T01:06:56.336Z,43.38
2023-01-30T01:09:24.024Z,39.47
2023-01-30T01:11:54.889Z,46.05
2023-01-30T01:14:23.976Z,42.97
2023-01-30T01:16:52.145Z,45.38
2023-01-30T01:19:19.899Z,44.60
2023-01-30T01:21:47.857Z,38.45
2023-01-30T01:24:16.485Z,42.83
2023-01-30T01:26:45.889Z,43.40
2023-01-30T01:29:15.997Z,44.97
2023-01-30T01:31:45.693Z,44.72
2023-01-30T01:34:13.538Z,40.80
2023-01-30T01:36:54.793Z,43.38
2023-01-30T01:39:24.043Z,39.97
2023-01-30T01:41:50.927Z,42.58
2023-01-30T01:44:19.961Z,41.10
2023-01-30T01:46:52.833Z,42.28
2023-01-30T01:49:25.618Z,41.65
2023-01-30T01:51:58.151Z,39.60
2023-01-30T01:54:30.997Z,38.70
2023-01-30T01:57:03.706Z,40.15
2023-01-30T01:59:37.041Z,36.95
2023-01-30T02:02:10.223Z,37.67
2023-01-30T02:04:58.790Z,42.47
2023-01-30T02:07:28.090Z,40.45
2023-01-30T02:09:56.327Z,43.10
2023-01-30T02:12:24.610Z,42.80
2023-01-30T02:14:57.688Z,41.38
2023-01-30T02:17:25.495Z,39.92
2023-01-30T02:20:04.752Z,36.40
2023-01-30T02:23:03.625Z,41.83
2023-01-30T02:26:08.675Z,43.50
2023-01-30T02:28:57.479Z,42.08
2023-01-30T02:31:33.731Z,42.38
2023-01-30T02:34:22.625Z,41.42
2023-01-30T02:37:06.690Z,40.78
2023-01-30T02:39:43.645Z,44.00
2023-01-30T02:42:24.641Z,45.10
2023-01-30T02:45:01.730Z,42.30
2023-01-30T02:47:35.270Z,41.83
2023-01-30T02:50:08.547Z,47.85
2023-01-30T02:52:38.570Z,43.90
2023-01-30T02:55:09.973Z,45.55
2023-01-30T02:57:41.712Z,48.20
2023-01-30T03:00:14.767Z,45.55
2023-01-30T03:03:30.060Z,43.60
2023-01-30T03:06:17.332Z,43.80
2023-01-30T03:08:59.127Z,42.95
2023-01-30T03:11:37.589Z,37.53
2023-01-30T03:14:12.799Z,37.50
2023-01-30T03:16:42.508Z,39.58
2023-01-30T03:19:13.897Z,33.95
2023-01-30T03:21:44.836Z,39.13
2023-01-30T03:24:13.689Z,38.63
2023-01-30T03:26:48.597Z,38.70
2023-01-30T03:29:16.593Z,35.20
2023-01-30T03:31:45.060Z,35.38
2023-01-30T03:34:17.729Z,34.92
2023-01-30T03:36:48.754Z,33.38
2023-01-30T03:39:17.388Z,36.88
2023-01-30T03:41:45.722Z,31.02
2023-01-30T03:44:13.687Z,33.97
2023-01-30T03:46:43.129Z,31.10
2023-01-30T03:49:11.135Z,32.10
2023-01-30T03:51:40.273Z,29.80
2023-01-30T03:54:07.930Z,29.70
2023-01-30T03:56:35.693Z,35.05
2023-01-30T03:59:05.206Z,30.95
2023-01-30T04:01:39.649Z,30.15
2023-01-30T04:04:07.569Z,29.42
2023-01-30T04:06:36.582Z,26.55
2023-01-30T04:09:08.577Z,25.92
2023-01-30T04:11:48.279Z,26.48
2023-01-30T04:14:16.168Z,27.80
2023-01-30T04:17:06.479Z,27.80
2023-01-30T04:19:51.722Z,26.52
2023-01-30T04:22:20.584Z,26.42
2023-01-30T04:24:50.370Z,26.63
2023-01-30T04:27:19.592Z,23.77
2023-01-30T04:30:09.677Z,26.10
2023-01-30T04:32:39.029Z,24.45
2023-01-30T04:35:07.746Z,25.00
2023-01-30T04:37:36.253Z,23.73
2023-01-30T04:40:06.557Z,23.58
2023-01-30T04:42:36.587Z,21.80
2023-01-30T04:45:22.715Z,22.52
2023-01-30T04:47:51.831Z,21.48
2023-01-30T04:50:19.660Z,20.73
2023-01-30T04:52:48.890Z,20.05
2023-01-30T04:55:18.603Z,19.42
2023-01-30T04:58:11.445Z,17.63
2023-01-30T05:00:39.524Z,19.88
2023-01-30T05:03:07.554Z,17.33
2023-01-30T05:05:35.253Z,17.17
2023-01-30T05:08:03.457Z,17.33
2023-01-30T05:10:32.646Z,17.35
2023-01-30T05:13:03.608Z,15.40
2023-01-30T05:15:31.588Z,17.58
2023-01-30T05:18:05.205Z,17.85
2023-01-30T05:23:00.762Z,15.25
2023-01-30T05:25:57.624Z,15.98
2023-01-30T05:28:29.569Z,16.50
2023-01-30T05:31:02.163Z,17.17
2023-01-30T05:33:30.208Z,17.15
2023-01-30T05:35:59.077Z,19.15
2023-01-30T05:38:27.927Z,16.95
2023-01-30T05:41:02.041Z,16.30
2023-01-30T05:43:31.625Z,15.25
2023-01-30T05:46:00.538Z,14.93
2023-01-30T05:48:29.700Z,13.43
2023-01-30T05:50:59.597Z,13.68
2023-01-30T05:53:30.643Z,12.23
2023-01-30T05:56:04.597Z,14.65
2023-01-30T05:58:32.997Z,15.43
2023-01-30T06:01:01.595Z,14.90
2023-01-30T06:03:54.569Z,13.88
2023-01-30T06:09:16.586Z,13.65
2023-01-30T06:11:46.426Z,12.45
2023-01-30T06:14:14.702Z,13.38
2023-01-30T06:16:44.047Z,12.38
2023-01-30T06:19:11.767Z,13.85
2023-01-30T06:21:39.447Z,13.43
2023-01-30T06:24:07.742Z,13.60
2023-01-30T06:26:39.076Z,14.23
2023-01-30T06:29:08.044Z,13.98
2023-01-30T06:31:35.763Z,12.88
2023-01-30T06:34:05.585Z,13.20
2023-01-30T06:36:33.723Z,12.63
2023-01-30T06:39:01.470Z,13.23
2023-01-30T06:41:29.099Z,11.13
2023-01-30T06:43:58.140Z,8.05
2023-01-30T06:46:29.736Z,9.05
2023-01-30T06:48:58.155Z,6.30
2023-01-30T06:51:27.724Z,6.55
2023-01-30T06:53:55.998Z,6.80
2023-01-30T06:56:25.699Z,7.13
2023-01-30T06:58:53.399Z,7.15
2023-01-30T07:01:21.271Z,10.23
2023-01-30T07:03:50.240Z,8.63
2023-01-30T07:06:19.583Z,6.13
2023-01-30T07:08:47.691Z,10.50
2023-01-30T07:11:15.368Z,12.38
2023-01-30T07:13:42.985Z,10.65
2023-01-30T07:16:10.587Z,8.20
2023-01-30T07:18:39.590Z,9.02
2023-01-30T07:21:08.588Z,10.80
2023-01-30T07:23:36.575Z,9.38
2023-01-30T07:26:05.590Z,14.75
2023-01-30T07:28:33.685Z,10.88
2023-01-30T07:31:02.033Z,11.38
2023-01-30T07:33:33.734Z,9.68
2023-01-30T07:36:01.314Z,11.70
2023-01-30T07:38:30.437Z,6.95
2023-01-30T07:40:58.854Z,12.27
2023-01-30T07:43:28.036Z,12.95
2023-01-30T07:48:48.612Z,12.82
2023-01-30T07:51:16.993Z,10.07
2023-01-30T07:53:46.600Z,9.13
2023-01-30T07:56:18.482Z,9.40
2023-01-30T07:58:46.620Z,10.05
2023-01-30T08:01:14.783Z,14.68
2023-01-30T08:03:43.806Z,9.85
2023-01-30T08:06:13.764Z,10.30
2023-01-30T08:08:41.592Z,12.02
2023-01-30T08:11:11.587Z,11.88
2023-01-30T08:13:40.204Z,16.63
2023-01-30T08:16:08.793Z,14.25
2023-01-30T08:18:38.009Z,11.43
2023-01-30T08:21:07.326Z,9.38
2023-01-30T08:23:35.353Z,8.27
2023-01-30T08:26:06.147Z,15.65
2023-01-30T08:28:36.587Z,16.15
2023-01-30T08:31:04.429Z,19.85
2023-01-30T08:33:32.146Z,17.77
2023-01-30T08:36:03.641Z,13.98
2023-01-30T08:38:35.276Z,14.30
2023-01-30T08:41:10.595Z,16.35
2023-01-30T08:43:40.425Z,16.35
2023-01-30T08:46:08.751Z,15.18
2023-01-30T08:48:49.083Z,12.38
2023-01-30T08:51:17.457Z,14.27
2023-01-30T08:53:48.129Z,13.50
2023-01-30T08:56:17.007Z,13.00
2023-01-30T08:58:46.614Z,14.07
2023-01-30T09:01:15.128Z,17.85
2023-01-30T09:03:43.159Z,17.75
2023-01-30T09:06:36.610Z,18.27
2023-01-30T09:09:04.702Z,18.83
2023-01-30T09:11:32.382Z,14.70
2023-01-30T09:14:01.387Z,13.25
2023-01-30T09:16:56.345Z,17.77
2023-01-30T09:19:24.723Z,15.20
2023-01-30T09:21:53.129Z,13.68
2023-01-30T09:24:23.614Z,15.07
2023-01-30T09:26:57.513Z,17.38
2023-01-30T09:29:27.152Z,14.00
2023-01-30T09:31:56.384Z,18.52
2023-01-30T09:34:27.366Z,19.90
2023-01-30T09:36:56.679Z,19.70
2023-01-30T09:39:24.464Z,16.50
2023-01-30T09:42:10.171Z,14.40
2023-01-30T09:45:01.611Z,15.65
2023-01-30T09:47:39.377Z,16.80
2023-01-30T09:50:44.638Z,19.88
2023-01-30T09:53:19.627Z,16.45
2023-01-30T09:56:13.031Z,17.38
2023-01-30T09:58:47.177Z,17.67
2023-01-30T10:01:27.595Z,18.17
2023-01-30T10:04:28.190Z,15.10
2023-01-30T10:07:01.972Z,16.45
2023-01-30T10:09:40.275Z,15.88
2023-01-30T10:12:29.608Z,13.93
2023-01-30T10:15:21.813Z,19.15
2023-01-30T10:18:07.009Z,16.17
2023-01-30T10:20:48.437Z,14.07
2023-01-30T10:23:28.965Z,16.40
2023-01-30T10:26:02.420Z,14.63
2023-01-30T10:28:35.415Z,17.52
2023-01-30T10:31:06.631Z,15.38
2023-01-30T10:33:44.927Z,17.17
2023-01-30T10:36:16.246Z,18.73
2023-01-30T10:38:49.603Z,14.32
2023-01-30T10:41:27.967Z,16.48
2023-01-30T10:44:04.639Z,17.13
2023-01-30T10:46:49.405Z,18.60
2023-01-30T10:49:25.723Z,18.33
2023-01-30T10:52:03.618Z,14.40
2023-01-30T10:54:38.660Z,12.90
2023-01-30T10:57:19.600Z,18.17
2023-01-30T10:59:56.598Z,18.70
2023-01-30T11:02:27.412Z,16.05
2023-01-30T11:05:01.022Z,19.08
2023-01-30T11:07:32.700Z,14.20
2023-01-30T11:10:01.562Z,16.15
2023-01-30T11:12:31.486Z,13.48
2023-01-30T11:15:01.289Z,22.58
2023-01-30T11:17:34.999Z,11.65
2023-01-30T11:20:15.628Z,15.65
2023-01-30T11:22:48.250Z,13.23
2023-01-30T11:25:22.127Z,20.02
2023-01-30T11:27:58.752Z,14.02
2023-01-30T11:30:30.051Z,14.90
2023-01-30T11:33:12.120Z,16.83
2023-01-30T11:38:31.087Z,20.65
2023-01-30T11:41:17.284Z,16.30
2023-01-30T11:43:46.292Z,14.45
2023-01-30T11:46:17.319Z,16.33
2023-01-30T11:49:29.129Z,12.03
2023-01-30T11:51:45.793Z,14.02
2023-01-30T11:54:20.818Z,15.50
2023-01-30T11:56:56.259Z,14.57
2023-01-30T11:59:29.503Z,12.50
2023-01-30T12:02:07.650Z,12.43
2023-01-30T12:04:36.236Z,19.65
2023-01-30T12:07:19.468Z,10.75
2023-01-30T12:09:50.224Z,14.65
2023-01-30T12:12:39.413Z,16.87
2023-01-30T12:15:27.010Z,11.25
2023-01-30T12:18:04.747Z,13.60
2023-01-30T12:20:45.900Z,11.27
2023-01-30T12:23:19.911Z,13.48
2023-01-30T12:25:59.433Z,16.48
2023-01-30T12:28:36.836Z,15.45
2023-01-30T12:31:13.714Z,15.50
2023-01-30T12:33:41.396Z,14.57
2023-01-30T12:36:21.719Z,15.02
2023-01-30T12:39:13.696Z,17.92
2023-01-30T12:41:59.805Z,14.13
2023-01-30T12:44:50.589Z,12.98
2023-01-30T12:47:50.678Z,13.32
2023-01-30T12:50:37.024Z,15.30
2023-01-30T12:53:34.698Z,13.55
2023-01-30T12:56:31.394Z,13.88
2023-01-30T12:59:05.804Z,13.15
2023-01-30T13:01:46.603Z,16.45
2023-01-30T13:04:23.375Z,16.10
2023-01-30T13:07:03.498Z,12.68
2023-01-30T13:09:40.663Z,18.67
2023-01-30T13:12:17.706Z,13.85
2023-01-30T13:14:53.797Z,12.82
2023-01-30T13:17:43.253Z,11.82
2023-01-30T13:20:23.753Z,14.48
2023-01-30T13:22:57.645Z,16.33
2023-01-30T13:25:33.756Z,14.85
2023-01-30T13:28:10.839Z,17.17
2023-01-30T13:30:41.679Z,16.45
2023-01-30T13:33:14.702Z,14.18
2023-01-30T13:35:47.576Z,14.75
2023-01-30T13:40:49.162Z,13.50
2023-01-30T13:43:23.510Z,13.93
2023-01-30T13:45:54.605Z,19.10
2023-01-30T13:48:47.250Z,17.33
2023-01-30T13:51:27.499Z,21.52
2023-01-30T13:54:02.635Z,22.98
2023-01-30T13:56:42.040Z,15.20
2023-01-30T13:59:23.619Z,18.13
2023-01-30T14:02:22.605Z,15.73
2023-01-30T14:04:53.342Z,16.50
2023-01-30T14:07:30.805Z,12.50
2023-01-30T14:10:17.079Z,7.65
2023-01-30T14:12:47.181Z,7.20
2023-01-30T14:15:31.780Z,12.55
2023-01-30T14:18:05.285Z,13.77
2023-01-30T14:20:35.081Z,13.75
2023-01-30T14:23:22.908Z,9.98
2023-01-30T14:25:53.182Z,17.60
2023-01-30T14:28:46.581Z,11.70
2023-01-30T14:31:56.065Z,13.35
2023-01-30T14:34:43.140Z,11.77
2023-01-30T14:37:44.413Z,11.75
2023-01-30T14:40:32.599Z,10.73
2023-01-30T14:43:48.188Z,9.93
2023-01-30T14:46:54.616Z,11.55
2023-01-30T14:49:30.777Z,13.90
2023-01-30T14:51:59.108Z,12.05
2023-01-30T14:54:41.104Z,17.48
2023-01-30T14:57:20.382Z,10.75
2023-01-30T15:00:13.061Z,13.23
2023-01-30T15:02:45.111Z,14.15
2023-01-30T15:05:26.373Z,13.48
2023-01-30T15:07:59.704Z,18.20
2023-01-30T15:11:09.658Z,17.92
2023-01-30T15:14:01.935Z,16.02
2023-01-30T15:16:48.938Z,11.68
2023-01-30T15:19:33.693Z,13.73
2023-01-30T15:22:14.834Z,15.90
2023-01-30T15:25:10.863Z,13.95
2023-01-30T15:27:53.318Z,15.43
2023-01-30T15:30:28.523Z,15.93
2023-01-30T15:33:29.347Z,17.13
2023-01-30T15:35:58.336Z,15.73
2023-01-30T15:38:30.372Z,17.63
2023-01-30T15:43:54.292Z,24.88
2023-01-30T15:46:33.271Z,13.02
2023-01-30T15:49:20.616Z,18.60
2023-01-30T15:51:49.320Z,15.23
2023-01-30T15:54:23.662Z,16.73
2023-01-30T15:56:52.715Z,14.32
2023-01-30T15:59:30.601Z,17.73
2023-01-30T16:02:01.363Z,15.27
2023-01-30T16:04:30.603Z,20.30
2023-01-30T16:06:59.702Z,18.23
2023-01-30T16:09:29.392Z,21.85
2023-01-30T16:11:56.966Z,17.90
2023-01-30T16:14:26.064Z,20.13
2023-01-30T16:16:58.864Z,16.25
2023-01-30T16:19:30.559Z,22.40
2023-01-30T16:22:03.652Z,18.63
2023-01-30T16:24:35.215Z,15.40
2023-01-30T16:27:06.316Z,18.40
2023-01-30T16:29:41.088Z,14.40
2023-01-30T16:32:14.665Z,19.05
2023-01-30T16:34:42.801Z,21.88
2023-01-30T16:37:27.152Z,15.82
2023-01-30T16:40:13.640Z,18.15
2023-01-30T16:42:42.703Z,15.77
2023-01-30T16:45:51.742Z,17.48
2023-01-30T16:48:32.908Z,17.05
2023-01-30T16:51:21.474Z,19.83
2023-01-30T16:53:58.060Z,15.00
2023-01-30T16:56:28.636Z,15.45
2023-01-30T16:59:00.150Z,17.02
2023-01-30T17:01:40.088Z,18.42
2023-01-30T17:04:18.681Z,17.05
2023-01-30T17:06:53.347Z,19.35
2023-01-30T17:09:43.614Z,18.30
2023-01-30T17:12:43.721Z,19.50
2023-01-30T17:15:34.199Z,17.48
2023-01-30T17:18:02.595Z,15.93
2023-01-30T17:20:42.458Z,15.65
2023-01-30T17:23:17.051Z,12.43
2023-01-30T17:25:48.055Z,18.02
2023-01-30T17:28:21.577Z,21.23
2023-01-30T17:30:49.964Z,14.73
2023-01-30T17:33:17.684Z,18.77
2023-01-30T17:35:46.671Z,18.67
2023-01-30T17:38:14.291Z,19.92
2023-01-30T17:40:42.898Z,15.38
2023-01-30T17:43:12.858Z,18.33
2023-01-30T17:45:41.944Z,17.35
2023-01-30T17:48:12.953Z,17.80
2023-01-30T17:50:40.767Z,17.35
2023-01-30T17:53:08.568Z,20.08
2023-01-30T17:55:37.303Z,15.45
2023-01-30T17:58:05.620Z,15.98
2023-01-30T18:00:34.708Z,21.63
2023-01-30T18:03:03.827Z,22.58
2023-01-30T18:05:31.734Z,18.10
2023-01-30T18:07:59.427Z,20.88
2023-01-30T18:10:27.697Z,16.77
2023-01-30T18:12:55.404Z,18.55
2023-01-30T18:15:23.601Z,15.65
2023-01-30T18:17:55.054Z,16.80
2023-01-30T18:20:49.401Z,22.55
2023-01-30T18:23:17.375Z,18.30
2023-01-30T18:25:44.970Z,20.55
2023-01-30T18:28:12.790Z,20.02
2023-01-30T18:30:40.699Z,17.70
2023-01-30T18:33:09.040Z,20.15
2023-01-30T18:35:38.895Z,18.05
2023-01-30T18:38:07.899Z,24.50
2023-01-30T18:40:35.583Z,18.65
2023-01-30T18:43:04.015Z,19.00
2023-01-30T18:45:31.640Z,24.65
2023-01-30T18:47:59.311Z,19.17
2023-01-30T18:50:27.096Z,24.70
2023-01-30T18:52:55.082Z,18.17
2023-01-30T18:55:25.752Z,15.82
2023-01-30T18:57:53.829Z,22.42
2023-01-30T19:00:22.563Z,11.48
2023-01-30T19:02:53.528Z,21.52
2023-01-30T19:05:21.568Z,16.48
2023-01-30T19:07:49.178Z,20.48
2023-01-30T19:10:18.030Z,22.88
2023-01-30T19:13:04.744Z,15.95
2023-01-30T19:15:36.610Z,19.55
2023-01-30T19:18:05.608Z,21.60
2023-01-30T19:20:33.368Z,15.35
2023-01-30T19:23:01.096Z,16.40
2023-01-30T19:25:28.780Z,22.98
2023-01-30T19:27:58.523Z,17.10
2023-01-30T19:30:26.294Z,20.70
2023-01-30T19:32:58.754Z,15.10
2023-01-30T19:35:27.710Z,19.02
2023-01-30T19:38:00.116Z,16.20
2023-01-30T19:40:31.221Z,21.17
2023-01-30T19:43:10.491Z,17.35
2023-01-30T19:45:40.413Z,19.42
2023-01-30T19:48:09.714Z,16.77
2023-01-30T19:50:39.632Z,23.48
2023-01-30T19:53:08.165Z,19.92
2023-01-30T19:55:36.098Z,20.15
2023-01-30T19:58:06.789Z,19.48
2023-01-30T20:00:36.596Z,15.68
2023-01-30T20:03:05.549Z,20.58
2023-01-30T20:05:34.085Z,22.83
2023-01-30T20:08:02.114Z,18.25
2023-01-30T20:10:29.743Z,12.18
2023-01-30T20:12:57.471Z,17.52
2023-01-30T20:15:26.616Z,16.48
2023-01-30T20:17:54.525Z,17.17
2023-01-30T20:20:22.396Z,18.70
2023-01-30T20:22:50.057Z,15.77
2023-01-30T20:25:18.047Z,19.23
2023-01-30T20:27:45.841Z,15.38
2023-01-30T20:30:15.392Z,13.63
2023-01-30T20:32:45.702Z,21.40
2023-01-30T20:35:13.511Z,19.73
2023-01-30T20:37:43.551Z,19.70
2023-01-30T20:40:14.213Z,18.13
2023-01-30T20:42:41.900Z,16.15
2023-01-30T20:45:10.327Z,13.45
2023-01-30T20:47:40.302Z,15.50
2023-01-30T20:50:13.562Z,15.77
2023-01-30T20:52:42.495Z,15.93
2023-01-30T20:55:11.426Z,20.80
2023-01-30T20:57:43.075Z,23.17
2023-01-30T21:00:12.617Z,15.07
2023-01-30T21:02:45.026Z,20.13
2023-01-30T21:05:16.619Z,16.27
2023-01-30T21:07:51.709Z,19.17
2023-01-30T21:10:19.340Z,18.73
2023-01-30T21:12:49.186Z,19.13
2023-01-30T21:15:18.507Z,13.50
2023-01-30T21:17:47.390Z,14.02
2023-01-30T21:20:17.041Z,20.45
2023-01-30T21:22:45.712Z,15.20
2023-01-30T21:25:19.873Z,16.73
2023-01-30T21:27:48.710Z,15.55
2023-01-30T21:30:17.509Z,16.83
2023-01-30T21:32:50.490Z,17.50
2023-01-30T21:35:21.940Z,15.13
2023-01-30T21:38:07.031Z,14.63
2023-01-30T21:40:52.641Z,18.05
2023-01-30T21:43:20.359Z,14.27
2023-01-30T21:45:48.089Z,12.90
2023-01-30T21:48:15.720Z,22.95
2023-01-30T21:50:44.873Z,18.15
2023-01-30T21:53:12.555Z,19.67
2023-01-30T21:55:40.557Z,15.57
2023-01-30T21:58:10.983Z,19.02
2023-01-30T22:00:38.876Z,16.00
2023-01-30T22:03:06.595Z,18.38
2023-01-30T22:05:36.793Z,19.70
2023-01-30T22:08:07.739Z,13.50
2023-01-30T22:10:36.588Z,17.08
2023-01-30T22:13:04.216Z,13.00
2023-01-30T22:15:33.700Z,14.43
2023-01-30T22:18:03.594Z,17.38
2023-01-30T22:20:33.606Z,16.90
2023-01-30T22:23:02.123Z,18.58
2023-01-30T22:25:31.515Z,16.08
2023-01-30T22:28:03.618Z,18.40
2023-01-30T22:30:31.359Z,14.13
2023-01-30T22:32:58.934Z,13.55
2023-01-30T22:35:26.748Z,17.48
2023-01-30T22:37:55.125Z,20.38
2023-01-30T22:40:30.144Z,15.32
2023-01-30T22:42:59.189Z,17.38
2023-01-30T22:45:27.507Z,17.33
2023-01-30T22:47:57.681Z,15.32
2023-01-30T22:50:27.584Z,14.15
2023-01-30T22:52:55.623Z,15.18
2023-01-30T22:55:28.137Z,14.90
2023-01-30T22:57:56.031Z,19.38
2023-01-30T23:00:25.140Z,17.02
2023-01-30T23:02:53.769Z,15.88
2023-01-30T23:05:22.319Z,18.40
2023-01-30T23:07:50.253Z,15.40
2023-01-30T23:10:18.203Z,15.27
2023-01-30T23:13:03.304Z,12.88
2023-01-30T23:15:39.170Z,17.85
2023-01-30T23:18:26.732Z,11.93
2023-01-30T23:20:54.312Z,13.90
2023-01-30T23:23:26.173Z,14.05
2023-01-30T23:25:55.620Z,14.20
2023-01-30T23:28:24.201Z,14.80
2023-01-30T23:30:53.343Z,14.88
2023-01-30T23:33:20.973Z,11.02
2023-01-30T23:35:48.531Z,13.52
2023-01-30T23:38:18.966Z,15.75
2023-01-30T23:40:50.857Z,16.30
2023-01-30T23:43:20.334Z,14.30
2023-01-30T23:45:47.950Z,10.95
2023-01-30T23:48:19.412Z,15.43
2023-01-30T23:50:47.705Z,16.83
2023-01-30T23:53:15.272Z,14.98
2023-01-30T23:55:51.279Z,16.42
2023-01-30T23:58:19.155Z,14.88
